Latest Weather Observations for Port Fairy

IDV60801

Issued at 3:02 pm EDT Sunday 7 February 2016 (issued every 30 minutes, with the page automatically refreshed every 10 minutes)

About weather observations | Map of weather stations | Latest weather observations for VIC | Other Formats
Station Details ID: 090175 Name: PORT FAIRY AWS Lat: -38.39 Lon: 142.23 Height: 10.0 m
Data from the previous 72 hours. | See also: Recent months at Port Fairy
Date/Time
EDT
Temp
°C
App
Temp
°C
Dew
Point
Rel
Hum
%
Delta-T
°C
Wind Press
QNH
hPa
Press
MSL
hPa
Rain
since 9 am
mm
Dir
 
Spd
km/h
Gust
km/h
Spd
kts
Gust
kts
07/03:00pm 21.9 21.9 17.3 75 2.8 SSW 13 19 7 10 1018.6 1018.6 0.0
07/02:30pm 22.2 22.8 17.6 75 2.8 SSW 11 17 6 9 1018.5 1018.5 0.0
07/02:00pm 21.1 21.1 17.1 78 2.4 SSW 13 19 7 10 1018.6 1018.6 0.0
07/01:30pm 21.2 21.1 17.0 77 2.6 SSW 13 19 7 10 1018.6 1018.6 0.0
07/01:00pm 21.2 21.9 17.0 77 2.6 SSW 9 13 5 7 1018.5 1018.5 0.0
07/12:30pm 20.8 21.6 17.2 80 2.2 SSW 9 13 5 7 1018.4 1018.4 0.0
07/12:00pm 20.8 21.8 17.8 83 1.8 SW 9 11 5 6 1018.4 1018.4 0.0
07/11:30am 20.7 21.8 17.9 84 1.7 SW 9 11 5 6 1018.5 1018.5 0.0
07/11:00am 20.4 21.8 17.8 85 1.6 SW 7 9 4 5 1018.4 1018.4 0.0
07/10:30am 20.0 21.5 18.0 88 1.2 SW 7 9 4 5 1018.5 1018.5 0.0
07/10:00am 19.5 21.9 18.8 96 0.4 SSW 4 6 2 3 1018.3 1018.3 0.0
07/09:30am 19.1 21.9 18.9 99 0.1 SSW 2 4 1 2 1018.1 1018.1 0.0
07/09:00am 18.6 21.3 18.6 100 0.0 S 2 6 1 3 1017.8 1017.8 0.0
07/08:30am 18.1 21.0 18.1 100 0.0 CALM 0 0 0 0 1017.5 1017.5 0.0
07/08:00am 17.7 20.4 17.7 100 0.0 CALM 0 0 0 0 1017.2 1017.2 0.0
07/07:30am 17.0 18.6 17.0 100 0.0 SSW 4 7 2 4 1016.9 1016.9 0.0
07/07:00am 16.8 17.8 16.8 100 0.0 SSW 7 11 4 6 1016.5 1016.5 0.0
07/06:30am 17.1 17.1 17.1 100 0.0 SSW 13 17 7 9 1016.4 1016.4 0.0
07/06:00am 17.0 17.3 17.0 100 0.0 SSW 11 17 6 9 1016.0 1016.0 0.0
07/05:30am 16.8 17.0 16.8 100 0.0 SSW 11 15 6 8 1015.7 1015.7 0.0
07/05:00am 13.6 14.7 13.4 99 0.1 CALM 0 0 0 0 1015.5 1015.5 0.0
07/04:30am 14.2 15.5 14.2 100 0.0 CALM 0 2 0 1 1014.8 1014.8 0.0
07/04:00am 14.2 14.7 14.0 99 0.1 W 4 6 2 3 1014.9 1014.9 0.0
07/03:30am 14.3 14.8 14.1 99 0.1 WNW 4 6 2 3 1015.1 1015.1 0.0
07/03:00am 14.8 15.5 14.6 99 0.1 WNW 4 4 2 2 1015.2 1015.2 0.0
07/02:30am 15.1 15.9 14.9 99 0.1 WNW 4 7 2 4 1015.6 1015.6 0.0
07/02:00am 15.6 16.2 15.4 99 0.1 WNW 6 7 3 4 1015.7 1015.7 0.0
07/01:30am 15.4 16.0 15.2 99 0.1 W 6 7 3 4 1015.9 1015.9 0.0
07/01:00am 15.2 15.7 15.0 99 0.1 WNW 6 6 3 3 1016.1 1016.1 0.0
07/12:30am 15.8 17.6 15.6 99 0.1 CALM 0 0 0 0 1016.0 1016.0 0.0
07/12:00am 15.9 17.4 15.7 99 0.1 WNW 2 4 1 2 1016.0 1016.0 0.0
 
Date/Time
EDT
Temp
°C
App
Temp
°C
Dew
Point
Rel
Hum
%
Delta-T
°C
Wind Press
QNH
hPa
Press
MSL
hPa
Rain
since 9 am
mm
Dir
 
Spd
km/h
Gust
km/h
Spd
kts
Gust
kts
06/11:30pm 16.1 18.0 15.8 98 0.2 CALM 0 0 0 0 1016.1 1016.1 0.0
06/11:00pm 16.1 17.9 15.6 97 0.3 CALM 0 0 0 0 1016.1 1016.1 0.0
06/10:30pm 16.5 18.5 15.9 96 0.4 CALM 0 0 0 0 1016.2 1016.2 0.0
06/10:00pm 17.1 18.5 16.3 95 0.5 S 4 4 2 2 1016.0 1016.0 0.0
06/09:30pm 17.2 18.9 16.1 93 0.7 SE 2 2 1 1 1015.7 1015.7 0.0
06/09:00pm 17.5 18.7 16.0 91 0.9 SE 4 4 2 2 1015.4 1015.4 0.0
06/08:30pm 18.5 20.0 16.7 89 1.1 ESE 4 9 2 5 1015.1 1015.1 0.0
06/08:00pm 19.3 19.9 16.9 86 1.5 SE 9 13 5 7 1014.9 1014.9 0.0
06/07:30pm 19.8 20.0 16.8 83 1.8 SE 11 15 6 8 1014.7 1014.7 0.0
06/07:00pm 20.4 20.7 17.0 81 2.1 SE 11 17 6 9 1014.5 1014.5 0.0
06/06:30pm 20.8 20.4 17.2 80 2.2 SSE 15 20 8 11 1014.5 1014.5 0.0
06/06:00pm 20.9 19.7 17.1 79 2.3 SSE 19 24 10 13 1014.3 1014.3 0.0
06/05:30pm 20.8 19.6 17.0 79 2.3 SSE 19 24 10 13 1014.3 1014.3 0.0
06/05:00pm 21.0 19.5 16.8 77 2.6 SSE 20 26 11 14 1014.4 1014.4 0.0
06/04:30pm 22.1 21.5 16.6 71 3.3 SSE 15 20 8 11 1014.8 1014.8 0.0
06/04:00pm 20.9 19.5 16.5 76 2.7 SSE 19 22 10 12 1015.2 1015.2 0.0
06/03:30pm 20.8 20.0 16.0 74 2.9 SSE 15 20 8 11 1015.4 1015.4 0.0
06/03:00pm 22.1 21.9 17.5 75 2.8 SSE 15 19 8 10 1015.5 1015.5 0.0
06/02:30pm 21.3 20.7 16.7 75 2.8 SSE 15 19 8 10 1015.4 1015.4 0.0
06/02:00pm 22.4 22.3 17.8 75 2.9 SSE 15 19 8 10 1015.8 1015.8 0.0
06/01:30pm 21.7 21.2 16.9 74 2.9 SSE 15 19 8 10 1015.9 1015.9 0.0
06/01:00pm 21.3 20.7 16.7 75 2.8 SSE 15 19 8 10 1016.1 1016.1 0.0
06/12:30pm 20.7 19.6 16.3 76 2.6 SSE 17 20 9 11 1016.3 1016.3 0.0
06/12:00pm 20.5 19.4 15.3 72 3.1 SSE 15 20 8 11 1016.5 1016.5 0.0
06/11:30am 20.4 19.4 15.6 74 2.9 SSE 15 19 8 10 1016.4 1016.4 0.0
06/11:00am 20.4 19.6 16.0 76 2.6 SE 15 17 8 9 1016.5 1016.5 0.0
06/10:30am 19.6 18.9 15.3 76 2.5 SE 13 19 7 10 1016.6 1016.6 0.0
06/10:00am 19.5 19.2 15.4 77 2.4 ESE 11 17 6 9 1016.7 1016.7 0.0
06/09:30am 19.0 19.2 15.7 81 2.0 E 9 13 5 7 1016.9 1016.9 0.0
06/09:00am 17.6 17.2 15.2 86 1.4 ENE 11 17 6 9 1017.0 1017.0 0.0
06/08:30am 17.0 17.2 15.7 92 0.8 NE 9 13 5 7 1017.0 1017.0 0.0
06/08:00am 16.0 16.4 15.4 96 0.3 NE 7 15 4 8 1016.8 1016.8 0.0
06/07:30am 15.4 15.7 14.9 97 0.3 ENE 7 11 4 6 1016.5 1016.5 0.0
06/07:00am 15.2 15.4 14.7 97 0.3 ENE 7 11 4 6 1016.3 1016.3 0.0
06/06:30am 15.3 15.1 14.8 97 0.3 ENE 9 15 5 8 1015.8 1015.8 0.0
06/06:00am 15.4 15.4 15.1 98 0.2 E 9 15 5 8 1015.6 1015.6 0.0
06/05:30am 15.6 15.6 15.3 98 0.2 E 9 15 5 8 1015.9 1015.9 0.0
06/05:00am 15.5 15.1 15.2 98 0.2 E 11 15 6 8 1015.9 1015.9 0.0
06/04:30am 15.6 16.0 15.3 98 0.2 E 7 11 4 6 1016.2 1016.2 0.0
06/04:00am 15.8 16.3 15.5 98 0.2 E 7 13 4 7 1016.3 1016.3 0.0
06/03:30am 15.9 16.0 15.6 98 0.2 E 9 11 5 6 1016.5 1016.5 0.0
06/03:00am 16.2 16.8 15.7 97 0.3 E 7 11 4 6 1017.0 1017.0 0.0
06/02:30am 16.4 17.0 15.8 96 0.4 E 7 11 4 6 1017.2 1017.2 0.0
06/02:00am 16.7 17.0 15.9 95 0.5 ESE 9 15 5 8 1017.4 1017.4 0.0
06/01:30am 16.9 16.8 15.9 94 0.6 ESE 11 17 6 9 1017.6 1017.6 0.0
06/01:00am 17.1 16.6 16.0 93 0.6 ESE 13 19 7 10 1017.8 1017.8 0.0
06/12:30am 17.1 16.2 15.8 92 0.8 ESE 15 22 8 12 1017.9 1017.9 0.0
06/12:00am 17.3 16.0 15.8 91 0.9 ESE 17 24 9 13 1018.1 1018.1 0.0
 
Date/Time
EDT
Temp
°C
App
Temp
°C
Dew
Point
Rel
Hum
%
Delta-T
°C
Wind Press
QNH
hPa
Press
MSL
hPa
Rain
since 9 am
mm
Dir
 
Spd
km/h
Gust
km/h
Spd
kts
Gust
kts
05/11:30pm 17.5 15.8 15.8 90 1.0 ESE 19 28 10 15 1018.3 1018.3 0.0
05/11:00pm 17.7 15.9 16.0 90 1.0 ESE 20 30 11 16 1018.3 1018.3 0.0
05/10:30pm 17.9 15.8 16.2 90 1.0 ESE 22 30 12 16 1018.3 1018.3 0.0
05/10:00pm 18.0 15.6 16.3 90 1.0 ESE 24 35 13 19 1018.5 1018.5 0.0
05/09:30pm 18.1 15.3 16.4 90 1.0 SE 26 35 14 19 1018.1 1018.1 0.0
05/09:00pm 18.1 15.3 16.4 90 1.0 SE 26 35 14 19 1018.1 1018.1 0.0
05/08:30pm 18.4 15.6 16.4 88 1.2 SE 26 37 14 20 1017.8 1017.8 0.0
05/08:00pm 18.8 15.7 16.6 87 1.3 SE 28 39 15 21 1017.7 1017.7 0.0
05/07:30pm 19.3 16.6 16.7 85 1.6 SE 26 33 14 18 1017.5 1017.5 0.0
05/07:00pm 19.7 16.2 16.5 82 1.9 SE 30 37 16 20 1017.4 1017.4 0.0
05/06:30pm 20.2 16.7 16.4 79 2.3 SE 30 37 16 20 1017.6 1017.6 0.0
05/06:00pm 20.6 17.4 16.4 77 2.5 SE 28 37 15 20 1017.7 1017.7 0.0
05/05:30pm 21.1 18.1 16.7 76 2.7 SE 28 37 15 20 1017.7 1017.7 0.0
05/05:00pm 21.2 18.5 16.6 75 2.8 SSE 26 33 14 18 1018.0 1018.0 0.0
05/04:30pm 21.3 18.7 16.9 76 2.7 SSE 26 33 14 18 1018.2 1018.2 0.0
05/04:00pm 21.6 19.4 16.8 74 2.9 SSE 24 33 13 18 1018.4 1018.4 0.0
05/03:30pm 21.8 19.5 16.7 73 3.1 SSE 24 33 13 18 1018.9 1018.9 0.0
05/03:00pm 21.8 19.1 16.7 73 3.1 SSE 26 33 14 18 1019.1 1019.1 0.0
05/02:30pm 21.3 18.0 16.0 72 3.2 SSE 28 37 15 20 1019.3 1019.3 0.0
05/02:00pm 21.2 17.8 15.7 71 3.3 SSE 28 37 15 20 1019.7 1019.7 0.0
05/01:30pm 21.2 18.5 15.5 70 3.4 SSE 24 33 13 18 1020.1 1020.1 0.0
05/01:00pm 20.9 17.7 15.4 71 3.3 SE 26 35 14 19 1020.5 1020.5 0.0
05/12:30pm 21.1 18.3 15.4 70 3.4 SE 24 32 13 17 1020.9 1020.9 0.0
05/12:00pm 20.6 17.6 14.9 70 3.3 SE 24 32 13 17 1021.1 1021.1 0.0
05/11:30am 20.5 18.4 14.6 69 3.4 SE 19 26 10 14 1021.5 1021.5 0.0
05/11:00am 20.0 17.5 14.1 69 3.4 SE 20 28 11 15 1021.6 1021.6 0.0
05/10:30am 19.4 16.8 13.8 70 3.2 SE 20 24 11 13 1021.8 1021.8 0.0
05/10:00am 19.3 16.7 13.7 70 3.2 SE 20 24 11 13 1021.9 1021.9 0.0
05/09:30am 18.3 16.1 13.4 73 2.8 SE 17 24 9 13 1022.0 1022.0 0.0
05/09:00am 17.3 14.6 13.0 76 2.4 ESE 19 24 10 13 1022.0 1022.0 0.0
05/08:30am 16.9 13.9 12.6 76 2.4 SE 20 28 11 15 1021.7 1021.7 0.0
05/08:00am 16.6 13.7 12.2 75 2.4 ESE 19 30 10 16 1021.3 1021.3 0.0
05/07:30am 16.4 13.2 12.0 75 2.4 SE 20 28 11 15 1021.0 1021.0 0.0
05/07:00am 16.1 13.1 12.1 77 2.2 SE 19 28 10 15 1020.9 1020.9 0.0
05/06:30am 16.0 12.3 11.4 74 2.5 SE 22 32 12 17 1020.8 1020.8 0.0
05/06:00am 16.2 12.6 11.8 75 2.4 SE 22 35 12 19 1020.7 1020.7 0.0
05/05:30am 16.1 12.1 11.7 75 2.4 SE 24 33 13 18 1020.5 1020.5 0.0
05/05:00am 16.1 11.6 11.5 74 2.5 SE 26 33 14 18 1020.4 1020.4 0.0
05/04:30am 16.1 12.8 11.5 74 2.5 SE 20 28 11 15 1020.4 1020.4 0.0
05/04:00am 16.0 12.3 11.4 74 2.5 SE 22 30 12 16 1020.4 1020.4 0.0
05/03:30am 16.1 12.9 11.3 73 2.6 ESE 19 26 10 14 1020.6 1020.6 0.0
05/03:00am 16.1 13.0 11.5 74 2.5 SE 19 28 10 15 1020.8 1020.8 0.0
05/02:30am 16.2 12.1 11.6 74 2.5 SE 24 32 13 17 1021.1 1021.1 0.0
05/02:00am 16.2 12.6 11.8 75 2.4 SE 22 33 12 18 1021.3 1021.3 0.0
05/01:30am 16.2 12.3 12.0 76 2.3 SE 24 32 13 17 1021.4 1021.4 0.0
05/01:00am 16.2 12.3 12.0 76 2.3 SE 24 32 13 17 1021.4 1021.4 0.0
05/12:30am 16.3 12.1 12.3 77 2.2 SSE 26 35 14 19 1021.4 1021.4 0.0
05/12:00am 16.2 12.0 12.4 78 2.1 SSE 26 35 14 19 1021.4 1021.4 0.0
 
Date/Time
EDT
Temp
°C
App
Temp
°C
Dew
Point
Rel
Hum
%
Delta-T
°C
Wind Press
QNH
hPa
Press
MSL
hPa
Rain
since 9 am
mm
Dir
 
Spd
km/h
Gust
km/h
Spd
kts
Gust
kts
04/11:30pm 15.8 11.4 11.6 76 2.3 SSE 26 35 14 19 1021.6 1021.6 0.0
04/11:00pm 15.8 10.9 11.4 75 2.4 SSE 28 35 15 19 1021.9 1021.9 0.0
04/10:30pm 16.0 12.0 11.8 76 2.3 SSE 24 33 13 18 1021.9 1021.9 0.0
04/10:00pm 16.1 12.1 11.7 75 2.4 SSE 24 33 13 18 1021.8 1021.8 0.0
04/09:30pm 15.9 11.3 10.9 72 2.7 SSE 26 33 14 18 1021.7 1021.7 0.0
04/09:00pm 16.4 11.9 11.3 72 2.7 SE 26 32 14 17 1021.5 1021.5 0.0
04/08:30pm 16.5 12.3 11.0 70 2.9 SSE 24 35 13 19 1021.4 1021.4 0.0
04/08:00pm 16.6 12.0 11.1 70 2.9 SE 26 35 14 19 1021.3 1021.3 0.0
04/07:30pm 17.1 12.6 11.4 69 3.1 SE 26 35 14 19 1021.0 1021.0 0.0
04/07:00pm 17.1 12.8 10.9 67 3.3 SSE 24 33 13 18 1021.0 1021.0 0.0
04/06:30pm 17.8 13.6 11.1 65 3.6 SSE 24 33 13 18 1021.0 1021.0 0.0
04/06:00pm 18.6 15.0 11.7 64 3.8 SSE 22 35 12 19 1021.1 1021.1 0.0
04/05:30pm 18.1 14.5 11.7 66 3.5 SSE 22 32 12 17 1021.2 1021.2 0.0
04/05:00pm 17.9 13.4 10.0 60 4.2 SSE 24 33 13 18 1021.4 1021.4 0.0
04/04:30pm 19.0 14.8 11.1 60 4.3 SSE 24 32 13 17 1021.4 1021.4 0.0
04/04:00pm 19.6 15.3 10.9 57 4.7 SSE 24 30 13 16 1021.5 1021.5 0.0
04/03:30pm 18.7 14.5 11.0 61 4.2 SSE 24 32 13 17 1021.6 1021.6 0.0

Other Formats:

Comma delimited format used in spreadsheet applications
http://www.bom.gov.au/fwo/IDV60801/IDV60801.94830.axf

JavaScript Object Notation format (JSON) in row-major order
http://www.bom.gov.au/fwo/IDV60801/IDV60801.94830.json